Time;durP1;ratioP1;P1;durP2;ratioP2;P2;SDS_P1;SDS_P2;PMS_P1;PMS_P2;Temp;Humidity;BMP_temperature;BMP_pressure;BME280_temperature;BME280_humidity;BME280_pressure;Samples;Min_cycle;Max_cycle;Signal;HPM_P1;HPM_P2
2021/08/23 00:01:39;;;;;;;0.97;0.83;;;14.90;99.90;;;;;;4898989;29;20460;-85
2021/08/23 00:04:06;;;;;;;0.60;0.53;;;14.90;99.90;;;;;;4899007;29;20473;-80
2021/08/23 00:06:33;;;;;;;0.40;0.40;;;15.00;99.90;;;;;;4898665;29;20453;-80
2021/08/23 00:08:59;;;;;;;0.40;0.37;;;14.90;99.90;;;;;;4898546;29;20481;-80
2021/08/23 00:11:27;;;;;;;1.07;0.50;;;14.90;99.90;;;;;;4898658;29;20448;-85
2021/08/23 00:13:53;;;;;;;0.97;0.50;;;14.90;99.90;;;;;;4898307;29;20995;-85
2021/08/23 00:16:20;;;;;;;1.40;0.50;;;14.90;99.90;;;;;;4898574;29;20512;-85
2021/08/23 00:18:48;;;;;;;0.50;0.40;;;14.80;99.90;;;;;;4898502;29;20453;-85
2021/08/23 00:21:21;;;;;;;0.83;0.50;;;14.90;99.90;;;;;;4898549;29;20448;-85
2021/08/23 00:23:51;;;;;;;0.50;0.43;;;14.90;99.90;;;;;;4898476;29;20469;-80
2021/08/23 00:26:18;;;;;;;0.30;0.30;;;14.90;99.90;;;;;;4899275;29;20461;-81
2021/08/23 00:28:45;;;;;;;0.63;0.43;;;14.90;99.90;;;;;;4898373;29;20488;-82
2021/08/23 00:31:12;;;;;;;0.80;0.60;;;14.90;99.90;;;;;;4898419;29;20476;-82
2021/08/23 00:33:39;;;;;;;0.30;0.30;;;14.90;99.90;;;;;;4897964;29;20484;-82
2021/08/23 00:36:07;;;;;;;1.27;0.60;;;15.00;99.90;;;;;;4898231;29;20479;-82
2021/08/23 00:38:33;;;;;;;0.40;0.30;;;14.90;99.90;;;;;;4898125;29;20809;-80
2021/08/23 00:41:00;;;;;;;2.30;0.70;;;15.00;99.90;;;;;;4898310;29;20461;-80
2021/08/23 00:43:27;;;;;;;0.60;0.50;;;14.90;99.90;;;;;;4898184;29;20473;-81
2021/08/23 00:45:53;;;;;;;0.57;0.40;;;14.90;99.90;;;;;;4898263;29;20453;-85
2021/08/23 00:48:20;;;;;;;0.40;0.30;;;14.90;99.90;;;;;;4898268;29;20464;-85
2021/08/23 00:50:47;;;;;;;1.00;0.90;;;14.90;99.90;;;;;;4897960;29;21034;-80
2021/08/23 00:53:15;;;;;;;0.70;0.50;;;14.90;99.90;;;;;;4897796;29;20484;-80
2021/08/23 00:55:42;;;;;;;0.60;0.33;;;15.00;99.90;;;;;;4898223;29;20460;-85
2021/08/23 00:58:08;;;;;;;1.17;0.60;;;14.90;99.90;;;;;;4898264;29;20458;-85
2021/08/23 01:00:39;;;;;;;0.73;0.33;;;15.00;99.90;;;;;;4897850;29;20978;-80
2021/08/23 01:03:13;;;;;;;0.30;0.30;;;15.00;99.90;;;;;;4898017;29;20473;-81
2021/08/23 01:05:40;;;;;;;0.40;0.40;;;14.90;99.90;;;;;;4897854;29;20413;-82
2021/08/23 01:08:14;;;;;;;1.80;0.50;;;15.00;99.90;;;;;;4898273;29;20441;-82
2021/08/23 01:10:44;;;;;;;0.40;0.40;;;15.00;99.90;;;;;;4897991;29;20476;-82
2021/08/23 01:13:11;;;;;;;0.40;0.40;;;14.90;99.90;;;;;;4897970;29;20480;-82
2021/08/23 01:15:38;;;;;;;0.40;0.40;;;14.90;99.90;;;;;;4897956;29;20452;-80
2021/08/23 01:18:05;;;;;;;0.50;0.50;;;14.90;99.90;;;;;;4898201;29;20453;-80
2021/08/23 01:20:33;;;;;;;0.87;0.40;;;14.90;99.90;;;;;;4897938;29;20449;-80
2021/08/23 01:23:02;;;;;;;0.50;0.50;;;14.90;99.90;;;;;;4897839;29;20473;-80
2021/08/23 01:25:32;;;;;;;0.80;0.50;;;14.90;99.90;;;;;;4897881;29;20460;-80
2021/08/23 01:28:18;;;;;;;0.60;0.47;;;15.00;99.90;;;;;;4898436;29;20461;-82
2021/08/23 01:30:51;;;;;;;0.40;0.40;;;15.00;99.90;;;;;;4897480;29;20472;-82
2021/08/23 01:33:19;;;;;;;1.00;0.73;;;15.00;99.90;;;;;;4897549;29;20488;-85
2021/08/23 01:35:46;;;;;;;0.33;0.33;;;15.00;99.90;;;;;;4897957;29;20449;-85
2021/08/23 01:38:14;;;;;;;0.90;0.40;;;15.00;99.90;;;;;;4897739;29;20468;-86
2021/08/23 01:40:41;;;;;;;0.97;0.80;;;15.00;99.90;;;;;;4898093;29;20460;-85
2021/08/23 01:43:09;;;;;;;0.50;0.50;;;15.00;99.90;;;;;;4897783;29;20469;-85
2021/08/23 01:45:36;;;;;;;0.40;0.40;;;15.00;99.90;;;;;;4897803;29;20459;-81
2021/08/23 01:48:02;;;;;;;0.47;0.47;;;14.90;99.90;;;;;;4899245;29;20464;-80
2021/08/23 01:50:30;;;;;;;0.90;0.50;;;14.90;99.90;;;;;;4901023;29;20477;-81
2021/08/23 01:52:57;;;;;;;0.63;0.63;;;14.90;99.90;;;;;;4900792;29;20493;-86
2021/08/23 01:55:24;;;;;;;0.40;0.40;;;15.00;99.90;;;;;;4901126;29;20457;-86
2021/08/23 01:57:51;;;;;;;0.80;0.77;;;14.90;99.90;;;;;;4901109;29;20457;-86
2021/08/23 02:00:18;;;;;;;0.70;0.70;;;14.90;99.90;;;;;;4900732;29;20453;-86
2021/08/23 02:02:44;;;;;;;0.83;0.60;;;14.90;99.90;;;;;;4900881;29;20473;-82
2021/08/23 02:05:11;;;;;;;0.87;0.63;;;14.90;99.90;;;;;;4901119;29;20441;-82
2021/08/23 02:07:39;;;;;;;1.00;0.50;;;14.90;99.90;;;;;;4900896;29;20457;-81
2021/08/23 02:10:07;;;;;;;0.50;0.43;;;14.90;99.90;;;;;;4900634;29;20492;-80
2021/08/23 02:12:33;;;;;;;0.40;0.40;;;14.90;99.90;;;;;;4900637;29;20477;-80
2021/08/23 02:15:00;;;;;;;1.20;0.90;;;14.80;99.90;;;;;;4900619;29;20453;-80
2021/08/23 02:17:27;;;;;;;1.03;0.50;;;14.80;99.90;;;;;;4900411;29;20945;-81
2021/08/23 02:19:54;;;;;;;0.50;0.43;;;14.80;99.90;;;;;;4900542;29;20457;-80
2021/08/23 02:22:20;;;;;;;0.30;0.30;;;14.70;99.90;;;;;;4900423;29;20839;-86
2021/08/23 02:24:48;;;;;;;0.97;0.47;;;14.70;99.90;;;;;;4900658;29;20448;-86
2021/08/23 02:27:15;;;;;;;0.40;0.40;;;14.80;99.90;;;;;;4901100;29;20461;-80
2021/08/23 02:29:42;;;;;;;1.77;0.60;;;14.80;99.90;;;;;;4901161;29;20489;-85
2021/08/23 02:32:09;;;;;;;0.57;0.47;;;14.80;99.90;;;;;;4900123;29;20480;-80
2021/08/23 02:34:35;;;;;;;0.40;0.40;;;14.80;99.90;;;;;;4900266;29;20448;-79
2021/08/23 02:37:02;;;;;;;0.60;0.60;;;14.80;99.90;;;;;;4900383;29;20456;-86
2021/08/23 02:39:29;;;;;;;0.40;0.40;;;14.80;99.90;;;;;;4900468;29;20461;-82
2021/08/23 02:41:57;;;;;;;0.50;0.50;;;14.80;99.90;;;;;;4900175;29;20457;-82
2021/08/23 02:44:24;;;;;;;0.80;0.50;;;14.80;99.90;;;;;;4900242;29;20457;-85
2021/08/23 02:46:51;;;;;;;1.10;0.50;;;14.80;99.90;;;;;;4900138;29;20961;-86
2021/08/23 02:49:18;;;;;;;0.40;0.40;;;14.80;99.90;;;;;;4900203;29;20468;-86
2021/08/23 02:51:45;;;;;;;0.70;0.37;;;14.80;99.90;;;;;;4900138;29;20460;-83
2021/08/23 02:54:12;;;;;;;0.60;0.50;;;14.80;99.90;;;;;;4899427;29;20498;-82
2021/08/23 02:56:39;;;;;;;0.83;0.57;;;14.70;99.90;;;;;;4899910;29;20464;-82
2021/08/23 02:59:07;;;;;;;0.50;0.50;;;14.80;99.90;;;;;;4898458;29;20966;-82
2021/08/23 03:01:34;;;;;;;0.40;0.40;;;14.80;99.90;;;;;;4899492;29;20461;-82
2021/08/23 03:04:00;;;;;;;0.40;0.30;;;14.80;99.90;;;;;;4899673;29;20476;-82
2021/08/23 03:06:27;;;;;;;0.30;0.30;;;14.80;99.90;;;;;;4900000;29;20457;-82
2021/08/23 03:08:54;;;;;;;0.70;0.50;;;14.80;99.90;;;;;;4899669;29;20464;-82
2021/08/23 03:11:21;;;;;;;0.40;0.37;;;14.80;99.90;;;;;;4899531;29;20496;-80
2021/08/23 03:13:47;;;;;;;0.60;0.60;;;14.70;99.90;;;;;;4899533;29;20477;-80
2021/08/23 03:16:15;;;;;;;0.60;0.60;;;14.70;99.90;;;;;;4899517;29;20460;-81
2021/08/23 03:18:42;;;;;;;0.80;0.40;;;14.80;99.90;;;;;;4899223;29;20457;-82
2021/08/23 03:21:09;;;;;;;0.30;0.30;;;14.80;99.90;;;;;;4899173;29;20953;-82
2021/08/23 03:23:36;;;;;;;1.17;0.73;;;14.80;99.90;;;;;;4899015;29;20481;-82
2021/08/23 03:26:04;;;;;;;0.40;0.40;;;14.80;99.90;;;;;;4899315;29;20938;-81
2021/08/23 03:28:31;;;;;;;1.17;0.40;;;14.70;99.90;;;;;;4899312;29;20460;-81
2021/08/23 03:30:58;;;;;;;0.40;0.40;;;14.70;99.90;;;;;;4899148;29;20492;-81
2021/08/23 03:33:27;;;;;;;0.37;0.30;;;14.70;99.90;;;;;;4898990;29;21011;-82
2021/08/23 03:35:54;;;;;;;0.30;0.30;;;14.70;99.90;;;;;;4898902;29;20456;-82
2021/08/23 03:38:20;;;;;;;0.30;0.30;;;14.70;99.90;;;;;;4898781;29;20461;-81
2021/08/23 03:40:47;;;;;;;0.30;0.30;;;14.70;99.90;;;;;;4899099;29;20460;-81
2021/08/23 03:43:14;;;;;;;0.50;0.40;;;14.60;99.90;;;;;;4899020;29;20480;-81
2021/08/23 03:45:41;;;;;;;0.30;0.27;;;14.70;99.90;;;;;;4898771;29;20811;-81
2021/08/23 03:48:08;;;;;;;0.40;0.40;;;14.70;99.90;;;;;;4898680;29;20945;-81
2021/08/23 03:50:36;;;;;;;0.37;0.37;;;14.70;99.90;;;;;;4898614;29;20484;-81
2021/08/23 03:53:03;;;;;;;0.97;0.80;;;14.70;99.90;;;;;;4898347;29;20489;-82
2021/08/23 03:55:29;;;;;;;0.40;0.30;;;14.70;99.90;;;;;;4898891;29;20475;-86
2021/08/23 03:57:56;;;;;;;1.43;0.70;;;14.70;99.90;;;;;;4899037;29;20453;-86
2021/08/23 04:00:23;;;;;;;0.73;0.40;;;14.70;99.90;;;;;;4898939;29;20460;-86
2021/08/23 04:02:49;;;;;;;0.63;0.50;;;14.70;99.90;;;;;;4898664;29;20484;-86
2021/08/23 04:05:16;;;;;;;0.30;0.30;;;14.70;99.90;;;;;;4898659;29;20957;-85
2021/08/23 04:07:44;;;;;;;0.37;0.30;;;14.70;99.90;;;;;;4898895;29;21046;-86
2021/08/23 04:10:11;;;;;;;0.50;0.40;;;14.70;99.90;;;;;;4898040;29;20483;-80
2021/08/23 04:12:38;;;;;;;0.50;0.50;;;14.70;99.90;;;;;;4898774;29;20472;-80
2021/08/23 04:15:06;;;;;;;0.40;0.40;;;14.70;99.90;;;;;;4898552;29;20457;-82
2021/08/23 04:17:33;;;;;;;0.50;0.50;;;14.70;99.90;;;;;;4898220;29;20449;-83
2021/08/23 04:20:00;;;;;;;0.50;0.50;;;14.70;99.90;;;;;;4898210;29;20803;-83
2021/08/23 04:22:27;;;;;;;0.40;0.33;;;14.70;99.90;;;;;;4898421;29;20479;-82
2021/08/23 04:24:55;;;;;;;0.40;0.40;;;14.70;99.90;;;;;;4898437;29;20446;-83
2021/08/23 04:27:22;;;;;;;1.27;0.67;;;14.70;99.90;;;;;;4898460;29;20461;-87
2021/08/23 04:29:49;;;;;;;1.00;0.97;;;14.70;99.90;;;;;;4898487;29;20460;-86
2021/08/23 04:32:15;;;;;;;0.40;0.40;;;14.60;99.90;;;;;;4898495;29;20476;-86
2021/08/23 04:34:42;;;;;;;0.70;0.40;;;14.60;99.90;;;;;;4898385;29;20826;-82
2021/08/23 04:37:09;;;;;;;1.60;0.47;;;14.60;99.90;;;;;;4898550;29;20445;-82
2021/08/23 04:39:35;;;;;;;0.30;0.30;;;14.60;99.90;;;;;;4898268;29;20460;-82
2021/08/23 04:42:04;;;;;;;0.70;0.60;;;14.60;99.90;;;;;;4898443;29;20445;-82
2021/08/23 04:44:31;;;;;;;0.33;0.33;;;14.60;99.90;;;;;;4897953;29;20961;-81
2021/08/23 04:46:57;;;;;;;0.30;0.30;;;14.60;99.90;;;;;;4897976;29;20441;-81
2021/08/23 04:49:24;;;;;;;0.50;0.50;;;14.70;99.90;;;;;;4898195;29;20463;-81
2021/08/23 04:51:51;;;;;;;0.40;0.40;;;14.70;99.90;;;;;;4897767;29;20489;-81
2021/08/23 04:54:18;;;;;;;0.30;0.30;;;14.70;99.90;;;;;;4897907;29;20488;-80
2021/08/23 04:56:47;;;;;;;0.73;0.47;;;14.70;99.90;;;;;;4897883;29;20456;-80
2021/08/23 04:59:15;;;;;;;0.57;0.37;;;14.70;99.90;;;;;;4897827;29;20453;-80
2021/08/23 05:01:42;;;;;;;1.13;0.60;;;14.70;99.90;;;;;;4897811;29;20458;-80
2021/08/23 05:04:09;;;;;;;1.60;0.40;;;14.70;99.90;;;;;;4898179;29;20460;-87
2021/08/23 05:06:35;;;;;;;0.60;0.60;;;14.70;99.90;;;;;;4898285;29;20484;-87
2021/08/23 05:09:02;;;;;;;0.40;0.40;;;14.80;99.90;;;;;;4898303;29;20456;-87
2021/08/23 05:11:29;;;;;;;0.40;0.40;;;14.80;99.90;;;;;;4898155;29;20496;-86
2021/08/23 05:13:56;;;;;;;0.67;0.33;;;14.80;99.90;;;;;;4898314;29;20584;-87
2021/08/23 05:16:24;;;;;;;0.70;0.70;;;14.90;99.90;;;;;;4898192;29;20930;-87
2021/08/23 05:18:51;;;;;;;0.60;0.60;;;14.90;99.90;;;;;;4897863;29;20964;-87
2021/08/23 05:21:18;;;;;;;0.60;0.40;;;14.90;99.90;;;;;;4898326;29;20464;-86
2021/08/23 05:23:44;;;;;;;1.03;0.40;;;14.90;99.90;;;;;;4900604;29;20835;-83
2021/08/23 05:26:12;;;;;;;0.50;0.50;;;14.90;99.90;;;;;;4901653;29;20457;-83
2021/08/23 05:28:38;;;;;;;0.50;0.40;;;14.90;99.90;;;;;;4901479;29;20456;-83
2021/08/23 05:31:05;;;;;;;0.40;0.27;;;14.90;99.90;;;;;;4901147;29;20480;-83
2021/08/23 05:33:34;;;;;;;0.40;0.30;;;14.90;99.90;;;;;;4901070;29;20517;-82
2021/08/23 05:36:01;;;;;;;0.40;0.40;;;14.90;99.90;;;;;;4901044;29;20964;-83
2021/08/23 05:38:27;;;;;;;0.40;0.40;;;14.90;99.90;;;;;;4901041;29;20461;-83
2021/08/23 05:40:54;;;;;;;0.30;0.30;;;14.90;99.90;;;;;;4900970;29;20444;-83
2021/08/23 05:43:21;;;;;;;0.40;0.40;;;14.90;99.90;;;;;;4901149;29;20481;-80
2021/08/23 05:45:47;;;;;;;1.57;0.40;;;14.90;99.90;;;;;;4901208;29;20456;-81
2021/08/23 05:48:16;;;;;;;0.40;0.30;;;14.90;99.90;;;;;;4900901;29;20832;-81
2021/08/23 05:50:44;;;;;;;0.30;0.30;;;14.90;99.90;;;;;;4901007;29;20494;-81
2021/08/23 05:53:11;;;;;;;0.40;0.30;;;14.90;99.90;;;;;;4900697;29;20496;-82
2021/08/23 05:55:37;;;;;;;0.40;0.37;;;15.00;99.90;;;;;;4901023;29;20460;-82
2021/08/23 05:58:04;;;;;;;0.60;0.30;;;15.00;99.90;;;;;;4901244;29;20453;-81
2021/08/23 06:00:31;;;;;;;0.43;0.43;;;15.10;99.90;;;;;;4901241;29;20453;-86
2021/08/23 06:02:58;;;;;;;0.93;0.70;;;15.10;99.90;;;;;;4900654;29;20981;-80
2021/08/23 06:05:24;;;;;;;1.00;0.90;;;15.20;99.90;;;;;;4901035;29;20468;-80
2021/08/23 06:07:52;;;;;;;0.40;0.40;;;15.20;99.90;;;;;;4900617;29;20548;-80
2021/08/23 06:10:20;;;;;;;0.40;0.40;;;15.20;99.90;;;;;;4900753;29;20461;-80
2021/08/23 06:12:47;;;;;;;0.37;0.30;;;15.20;99.90;;;;;;4900661;29;20477;-82
2021/08/23 06:15:14;;;;;;;0.67;0.67;;;15.30;99.90;;;;;;4900484;29;20509;-83
2021/08/23 06:17:40;;;;;;;1.07;0.70;;;15.30;99.90;;;;;;4900613;29;20461;-83
2021/08/23 06:20:09;;;;;;;0.40;0.30;;;15.30;99.90;;;;;;4900701;29;20941;-83
2021/08/23 06:22:37;;;;;;;2.33;0.50;;;15.40;99.90;;;;;;4900520;29;20517;-87
2021/08/23 06:25:06;;;;;;;0.90;0.33;;;15.50;99.90;;;;;;4900535;29;20465;-87
2021/08/23 06:27:32;;;;;;;0.67;0.60;;;15.50;99.90;;;;;;4900713;29;20821;-87
2021/08/23 06:30:01;;;;;;;0.80;0.50;;;15.50;99.90;;;;;;4900772;29;20456;-87
2021/08/23 06:32:28;;;;;;;0.50;0.50;;;15.50;99.90;;;;;;4900833;29;20489;-87
2021/08/23 06:34:55;;;;;;;0.77;0.53;;;15.50;99.90;;;;;;4900485;29;20456;-87
2021/08/23 06:37:22;;;;;;;1.20;0.40;;;15.50;99.90;;;;;;4900565;29;20460;-81
2021/08/23 06:39:48;;;;;;;0.40;0.30;;;15.60;99.90;;;;;;4899897;29;20992;-81
2021/08/23 06:42:17;;;;;;;0.47;0.47;;;15.60;99.90;;;;;;4900003;29;21000;-81
2021/08/23 06:44:43;;;;;;;1.80;0.73;;;15.60;99.90;;;;;;4899822;29;20448;-83
2021/08/23 06:47:10;;;;;;;0.87;0.50;;;15.70;99.90;;;;;;4899788;29;20441;-83
2021/08/23 06:49:37;;;;;;;0.30;0.30;;;15.70;99.90;;;;;;4899995;29;20806;-83
2021/08/23 06:52:04;;;;;;;0.40;0.40;;;15.80;99.90;;;;;;4899849;29;20489;-83
2021/08/23 06:54:31;;;;;;;0.50;0.50;;;15.90;99.90;;;;;;4899861;29;20492;-87
2021/08/23 06:56:57;;;;;;;0.70;0.50;;;16.00;99.90;;;;;;4900184;29;20460;-87
2021/08/23 06:59:27;;;;;;;0.50;0.30;;;16.10;99.90;;;;;;4900185;29;20456;-87
2021/08/23 07:01:54;;;;;;;0.40;0.40;;;16.20;99.90;;;;;;4900100;29;20448;-87
2021/08/23 07:04:21;;;;;;;0.40;0.40;;;16.30;99.90;;;;;;4900284;29;20465;-87
2021/08/23 07:06:49;;;;;;;0.50;0.50;;;16.30;99.90;;;;;;4900103;29;20428;-88
2021/08/23 07:09:15;;;;;;;0.30;0.30;;;16.50;99.90;;;;;;4900363;29;20808;-88
2021/08/23 07:11:42;;;;;;;0.60;0.40;;;16.60;99.90;;;;;;4899984;29;20488;-88
2021/08/23 07:14:09;;;;;;;0.43;0.43;;;16.70;99.90;;;;;;4899768;29;20420;-88
2021/08/23 07:16:37;;;;;;;0.70;0.50;;;16.70;99.90;;;;;;4899645;29;20461;-81
2021/08/23 07:19:04;;;;;;;0.43;0.43;;;16.60;99.90;;;;;;4899233;29;20861;-87
2021/08/23 07:21:30;;;;;;;0.90;0.50;;;16.60;99.90;;;;;;4899848;29;20445;-87
2021/08/23 07:23:57;;;;;;;0.40;0.40;;;16.70;99.90;;;;;;4899858;29;20473;-86
2021/08/23 07:26:24;;;;;;;0.50;0.37;;;16.70;99.90;;;;;;4899556;29;20455;-86
2021/08/23 07:28:51;;;;;;;0.60;0.40;;;16.70;99.90;;;;;;4899450;29;20448;-86
2021/08/23 07:31:18;;;;;;;0.60;0.50;;;16.80;99.90;;;;;;4899278;29;20488;-81
2021/08/23 07:33:46;;;;;;;1.07;0.87;;;16.80;99.90;;;;;;4899186;29;20484;-81
2021/08/23 07:36:13;;;;;;;0.40;0.40;;;16.90;99.90;;;;;;4899148;29;20453;-81
2021/08/23 07:38:40;;;;;;;0.40;0.30;;;17.00;99.90;;;;;;4899184;29;20500;-81
2021/08/23 07:41:06;;;;;;;0.50;0.43;;;17.10;99.90;;;;;;4898846;29;20441;-81
2021/08/23 07:43:33;;;;;;;0.80;0.50;;;17.10;99.90;;;;;;4898988;29;20499;-81
2021/08/23 07:46:00;;;;;;;0.80;0.53;;;17.20;99.90;;;;;;4898056;29;20453;-81
2021/08/23 07:48:27;;;;;;;0.70;0.70;;;17.20;99.90;;;;;;4898755;29;20984;-80
2021/08/23 07:50:55;;;;;;;1.07;0.53;;;17.20;99.90;;;;;;4898854;29;20452;-81
2021/08/23 07:53:21;;;;;;;0.60;0.50;;;17.20;99.90;;;;;;4898377;29;20481;-81
2021/08/23 07:55:48;;;;;;;0.47;0.47;;;17.40;99.90;;;;;;4898658;29;20987;-81
2021/08/23 07:58:15;;;;;;;0.47;0.40;;;17.60;99.90;;;;;;4898556;29;20449;-81
2021/08/23 08:00:42;;;;;;;1.47;0.87;;;17.70;99.90;;;;;;4898934;29;20442;-85
2021/08/23 08:03:08;;;;;;;0.90;0.67;;;17.80;99.90;;;;;;4898451;29;20477;-81
2021/08/23 08:05:37;;;;;;;0.50;0.40;;;17.90;99.90;;;;;;4898695;29;20473;-81
2021/08/23 08:08:07;;;;;;;0.63;0.50;;;18.10;99.90;;;;;;4898604;29;20559;-81
2021/08/23 08:10:34;;;;;;;1.83;0.63;;;18.10;99.90;;;;;;4898580;29;20449;-81
2021/08/23 08:13:01;;;;;;;0.70;0.63;;;18.20;99.90;;;;;;4898152;29;20493;-81
2021/08/23 08:15:28;;;;;;;0.90;0.60;;;18.30;99.90;;;;;;4898296;29;20537;-81
2021/08/23 08:17:55;;;;;;;0.50;0.50;;;18.40;99.90;;;;;;4898518;29;20457;-81
2021/08/23 08:20:22;;;;;;;0.70;0.40;;;18.40;99.90;;;;;;4898235;29;20442;-81
2021/08/23 08:22:49;;;;;;;0.80;0.70;;;18.40;99.90;;;;;;4898399;29;20473;-81
2021/08/23 08:25:17;;;;;;;1.13;0.60;;;18.50;99.90;;;;;;4898384;29;20452;-81
2021/08/23 08:27:44;;;;;;;0.63;0.50;;;18.60;99.90;;;;;;4898574;29;20460;-81
2021/08/23 08:30:15;;;;;;;0.70;0.47;;;18.80;99.90;;;;;;4898116;29;20448;-81
2021/08/23 08:32:41;;;;;;;5.40;0.63;;;18.90;99.90;;;;;;4897912;29;20532;-81
2021/08/23 08:35:10;;;;;;;0.50;0.50;;;19.00;99.90;;;;;;4898476;29;20456;-82
2021/08/23 08:37:37;;;;;;;0.40;0.40;;;19.00;99.90;;;;;;4897959;29;20838;-82
2021/08/23 08:40:06;;;;;;;0.60;0.43;;;19.00;99.90;;;;;;4897960;29;20460;-82
2021/08/23 08:42:34;;;;;;;1.03;0.63;;;19.20;99.90;;;;;;4898134;29;20480;-81
2021/08/23 08:45:01;;;;;;;0.63;0.63;;;19.20;99.90;;;;;;4898920;29;20818;-81
2021/08/23 08:47:28;;;;;;;1.70;0.70;;;19.20;99.90;;;;;;4898137;29;20441;-82
2021/08/23 08:49:58;;;;;;;0.60;0.60;;;19.30;99.90;;;;;;4898249;29;20440;-82
2021/08/23 08:52:27;;;;;;;0.63;0.63;;;19.40;99.90;;;;;;4897899;29;20857;-82
2021/08/23 08:54:54;;;;;;;0.70;0.50;;;19.40;99.90;;;;;;4898162;29;20441;-81
2021/08/23 08:57:21;;;;;;;1.53;0.73;;;19.40;99.90;;;;;;4900070;29;20813;-82
2021/08/23 08:59:49;;;;;;;0.40;0.40;;;19.40;99.90;;;;;;4902018;29;20536;-82
2021/08/23 09:02:16;;;;;;;0.50;0.50;;;19.40;99.90;;;;;;4901928;29;20513;-82
2021/08/23 09:04:43;;;;;;;2.10;1.00;;;19.50;99.90;;;;;;4901970;29;20464;-85
2021/08/23 09:07:13;;;;;;;0.70;0.60;;;19.70;99.90;;;;;;4901665;29;20793;-85
2021/08/23 09:09:40;;;;;;;0.70;0.63;;;19.80;99.90;;;;;;4902202;29;20520;-83
2021/08/23 09:12:09;;;;;;;1.07;0.90;;;19.80;99.90;;;;;;4901775;29;20500;-85
2021/08/23 09:14:39;;;;;;;0.50;0.50;;;19.70;99.90;;;;;;4901901;29;20459;-86
2021/08/23 09:17:10;;;;;;;2.33;0.63;;;19.60;99.90;;;;;;4901845;29;20461;-85
2021/08/23 09:19:40;;;;;;;0.50;0.50;;;19.50;99.90;;;;;;4902139;29;20459;-85
2021/08/23 09:22:08;;;;;;;0.73;0.50;;;19.40;99.90;;;;;;4901344;29;20816;-85
2021/08/23 09:24:37;;;;;;;0.50;0.50;;;19.20;99.90;;;;;;4901330;29;20906;-85
2021/08/23 09:27:06;;;;;;;0.50;0.40;;;19.10;99.90;;;;;;4901808;29;20444;-90
2021/08/23 09:29:52;;;;;;;0.60;0.60;;;18.90;99.90;;;;;;4901595;29;20437;-85
2021/08/23 09:32:20;;;;;;;0.60;0.60;;;18.70;99.90;;;;;;4901347;29;21052;-85
2021/08/23 09:34:47;;;;;;;0.70;0.67;;;18.60;99.90;;;;;;4901217;29;20441;-85
2021/08/23 09:37:18;;;;;;;1.03;0.50;;;18.40;99.90;;;;;;4901419;29;20779;-85
2021/08/23 09:39:45;;;;;;;0.50;0.50;;;18.30;99.90;;;;;;4901378;29;20444;-85
2021/08/23 09:42:14;;;;;;;2.97;0.80;;;18.20;99.90;;;;;;4901243;29;20469;-82
2021/08/23 09:44:42;;;;;;;0.60;0.50;;;18.10;99.90;;;;;;4900959;29;20993;-82
2021/08/23 09:47:09;;;;;;;0.40;0.40;;;18.20;99.90;;;;;;4901275;29;20445;-85
2021/08/23 09:49:39;;;;;;;0.70;0.50;;;18.30;99.90;;;;;;4901282;29;20437;-85
2021/08/23 09:52:07;;;;;;;1.00;0.40;;;18.40;99.90;;;;;;4900806;29;20489;-85
2021/08/23 09:54:35;;;;;;;2.10;0.60;;;18.40;99.90;;;;;;4901128;29;20448;-85
2021/08/23 09:57:03;;;;;;;0.90;0.73;;;18.50;99.90;;;;;;4901133;29;20426;-85
2021/08/23 09:59:35;;;;;;;0.97;0.73;;;18.50;99.90;;;;;;4901267;29;20446;-85
2021/08/23 10:02:03;;;;;;;1.57;0.73;;;18.50;99.90;;;;;;4901184;29;20445;-85
2021/08/23 10:04:30;;;;;;;0.90;0.80;;;18.50;99.90;;;;;;4901445;29;20812;-85
2021/08/23 10:06:58;;;;;;;1.37;0.53;;;18.50;99.90;;;;;;4900986;29;20441;-85
2021/08/23 10:09:27;;;;;;;0.90;0.77;;;18.50;99.90;;;;;;4900303;29;20449;-85
2021/08/23 10:11:56;;;;;;;0.90;0.63;;;18.60;99.90;;;;;;4900651;29;20537;-85
2021/08/23 10:14:23;;;;;;;0.60;0.60;;;18.50;99.90;;;;;;4900869;29;20425;-85
2021/08/23 10:16:50;;;;;;;0.50;0.50;;;18.50;99.90;;;;;;4900650;29;20448;-86
2021/08/23 10:19:17;;;;;;;0.80;0.60;;;18.60;99.90;;;;;;4900969;29;20424;-81
2021/08/23 10:21:46;;;;;;;0.50;0.50;;;18.70;99.90;;;;;;4900802;29;20446;-81
2021/08/23 10:24:21;;;;;;;0.70;0.63;;;18.70;99.90;;;;;;4900590;29;20516;-82
2021/08/23 10:26:48;;;;;;;1.57;0.53;;;18.70;99.90;;;;;;4900530;29;20445;-82
2021/08/23 10:29:16;;;;;;;0.90;0.57;;;18.70;99.90;;;;;;4900493;29;20452;-83
2021/08/23 10:31:45;;;;;;;0.50;0.40;;;18.80;99.90;;;;;;4900571;29;20434;-81
2021/08/23 10:34:14;;;;;;;0.40;0.40;;;18.90;99.90;;;;;;4900402;29;20441;-81
2021/08/23 10:36:41;;;;;;;0.60;0.60;;;19.00;99.90;;;;;;4900339;29;20437;-82
2021/08/23 10:39:08;;;;;;;0.60;0.50;;;19.00;99.90;;;;;;4900409;29;20438;-85
2021/08/23 10:41:37;;;;;;;1.10;1.00;;;19.00;99.90;;;;;;4900402;29;20441;-86
2021/08/23 10:44:05;;;;;;;0.73;0.73;;;19.00;99.90;;;;;;4900559;29;20508;-86
2021/08/23 10:46:33;;;;;;;0.93;0.53;;;19.30;99.90;;;;;;4900024;29;20917;-86
2021/08/23 10:49:05;;;;;;;1.23;0.77;;;19.40;99.90;;;;;;4900219;29;20441;-86
2021/08/23 10:51:35;;;;;;;0.73;0.63;;;19.70;99.90;;;;;;4900240;29;20804;-86
2021/08/23 10:54:06;;;;;;;0.40;0.40;;;20.20;99.90;;;;;;4899889;29;20492;-86
2021/08/23 10:56:40;;;;;;;0.97;0.70;;;20.50;99.90;;;;;;4900477;29;20552;-87
2021/08/23 10:59:15;;;;;;;0.63;0.63;;;20.90;99.90;;;;;;4899766;29;20451;-83
2021/08/23 11:01:53;;;;;;;0.40;0.40;;;21.20;99.90;;;;;;4900034;29;20463;-83
2021/08/23 11:04:31;;;;;;;0.60;0.53;;;21.20;99.90;;;;;;4899915;29;20897;-82
2021/08/23 11:06:58;;;;;;;2.07;0.93;;;21.00;99.90;;;;;;4900380;29;20437;-82
2021/08/23 11:09:35;;;;;;;0.60;0.60;;;20.70;99.90;;;;;;4899800;29;20883;-82
2021/08/23 11:12:20;;;;;;;1.00;0.80;;;20.40;99.90;;;;;;4899628;29;20468;-82
2021/08/23 11:14:56;;;;;;;1.00;0.80;;;20.00;99.90;;;;;;4899844;29;20441;-86
2021/08/23 11:17:27;;;;;;;0.63;0.63;;;19.70;99.90;;;;;;4899887;29;20424;-86
2021/08/23 11:19:55;;;;;;;0.67;0.67;;;19.60;99.90;;;;;;4898898;29;20802;-86
2021/08/23 11:22:22;;;;;;;0.60;0.50;;;19.40;99.90;;;;;;4899546;29;20473;-86
2021/08/23 11:24:49;;;;;;;0.73;0.70;;;19.40;99.90;;;;;;4899632;29;20441;-85
2021/08/23 11:27:17;;;;;;;0.60;0.60;;;19.40;99.90;;;;;;4899277;29;20425;-84
2021/08/23 11:29:53;;;;;;;0.50;0.40;;;19.40;99.90;;;;;;4899417;29;20440;-85
2021/08/23 11:32:24;;;;;;;0.97;0.70;;;19.60;99.90;;;;;;4899113;29;21004;-85
2021/08/23 11:34:52;;;;;;;0.50;0.50;;;19.70;99.90;;;;;;4899661;29;20425;-84
2021/08/23 11:37:23;;;;;;;1.53;0.70;;;20.00;99.90;;;;;;4899311;29;20421;-84
2021/08/23 11:40:01;;;;;;;1.37;0.60;;;20.10;99.90;;;;;;4899343;29;20444;-84
2021/08/23 11:42:37;;;;;;;0.50;0.50;;;20.30;99.90;;;;;;5153152;27;20514;-84
2021/08/23 11:45:04;;;;;;;0.70;0.40;;;20.40;99.90;;;;;;5152556;27;20430;-82
2021/08/23 11:47:33;;;;;;;0.80;0.60;;;20.50;99.90;;;;;;5152474;27;20425;-83
2021/08/23 11:50:00;;;;;;;2.10;0.57;;;20.20;99.90;;;;;;5152447;27;20479;-82
2021/08/23 11:52:28;;;;;;;0.57;0.57;;;19.90;99.90;;;;;;5152008;27;20458;-82
2021/08/23 11:54:56;;;;;;;2.20;0.80;;;19.60;99.90;;;;;;5152485;27;20414;-82
2021/08/23 11:57:24;;;;;;;1.13;0.70;;;19.30;99.90;;;;;;5152284;27;20434;-82
2021/08/23 11:59:57;;;;;;;0.80;0.80;;;19.00;99.90;;;;;;5151978;27;20410;-82
2021/08/23 12:02:30;;;;;;;0.63;0.50;;;18.90;99.90;;;;;;5152051;27;20533;-82
2021/08/23 12:05:12;;;;;;;0.70;0.53;;;18.80;99.90;;;;;;5151801;27;20977;-81
2021/08/23 12:07:46;;;;;;;0.50;0.50;;;18.70;99.90;;;;;;5152100;27;20425;-81
2021/08/23 12:10:27;;;;;;;2.67;0.53;;;18.70;99.90;;;;;;5151825;27;20436;-85
2021/08/23 12:13:06;;;;;;;1.00;1.00;;;18.70;99.90;;;;;;5152022;27;20467;-84
2021/08/23 12:15:36;;;;;;;0.97;0.53;;;18.90;99.90;;;;;;5152063;27;20425;-85
2021/08/23 12:18:11;;;;;;;0.40;0.40;;;18.90;99.90;;;;;;5152319;27;20428;-87
2021/08/23 12:20:38;;;;;;;0.40;0.40;;;18.90;99.90;;;;;;5152205;27;20479;-87
2021/08/23 12:23:06;;;;;;;0.73;0.57;;;19.00;99.90;;;;;;5151847;27;20534;-88
2021/08/23 12:25:33;;;;;;;0.40;0.40;;;19.10;99.90;;;;;;5152544;27;20425;-88
2021/08/23 12:28:00;;;;;;;0.60;0.60;;;19.20;99.90;;;;;;5152882;27;20430;-88
2021/08/23 12:30:29;;;;;;;0.50;0.47;;;19.40;99.90;;;;;;5152495;27;20519;-87
2021/08/23 12:32:57;;;;;;;0.57;0.50;;;19.50;99.90;;;;;;5152524;27;20476;-83
2021/08/23 12:35:26;;;;;;;0.50;0.50;;;19.60;99.90;;;;;;5151511;27;20518;-83
2021/08/23 12:37:53;;;;;;;0.80;0.60;;;19.60;99.90;;;;;;5151143;27;20430;-83
2021/08/23 12:40:19;;;;;;;0.60;0.60;;;19.60;99.90;;;;;;5150901;27;20923;-83
2021/08/23 12:42:51;;;;;;;0.70;0.70;;;19.60;99.90;;;;;;5151151;27;20473;-82
2021/08/23 12:45:17;;;;;;;0.70;0.60;;;19.60;99.90;;;;;;5151308;27;20758;-82
2021/08/23 12:47:44;;;;;;;0.40;0.40;;;19.50;99.90;;;;;;5151325;27;20430;-83
2021/08/23 12:50:12;;;;;;;0.53;0.53;;;19.40;99.90;;;;;;5151854;27;20418;-85
2021/08/23 12:52:39;;;;;;;0.80;0.70;;;19.30;99.90;;;;;;5144561;27;20473;-85